sensor_id;sensor_type;location;lat;lon;timestamp;pressure;altitude;pressure_sealevel;temperature;humidity
10881;BME280;5493;48.884;8.338;2022-12-18T00:01:49;101439.81;;;-4.22;100.00
10881;BME280;5493;48.884;8.338;2022-12-18T00:04:20;101447.34;;;-4.16;100.00
10881;BME280;5493;48.884;8.338;2022-12-18T00:06:48;101446.69;;;-4.20;100.00
10881;BME280;5493;48.884;8.338;2022-12-18T00:09:15;101459.97;;;-4.50;100.00
10881;BME280;5493;48.884;8.338;2022-12-18T00:11:42;101466.47;;;-4.00;100.00
10881;BME280;5493;48.884;8.338;2022-12-18T00:14:11;101452.97;;;-3.81;100.00
10881;BME280;5493;48.884;8.338;2022-12-18T00:16:39;101460.59;;;-3.77;100.00
10881;BME280;5493;48.884;8.338;2022-12-18T00:19:06;101449.91;;;-3.88;100.00
10881;BME280;5493;48.884;8.338;2022-12-18T00:21:33;101455.13;;;-4.15;100.00
10881;BME280;5493;48.884;8.338;2022-12-18T00:24:01;101451.13;;;-4.34;100.00
10881;BME280;5493;48.884;8.338;2022-12-18T00:26:29;101449.34;;;-4.62;100.00
10881;BME280;5493;48.884;8.338;2022-12-18T00:28:59;101458.00;;;-4.60;100.00
10881;BME280;5493;48.884;8.338;2022-12-18T00:31:25;101462.50;;;-4.48;100.00
10881;BME280;5493;48.884;8.338;2022-12-18T00:33:53;101467.41;;;-4.42;100.00
10881;BME280;5493;48.884;8.338;2022-12-18T00:36:22;101459.00;;;-4.77;100.00
10881;BME280;5493;48.884;8.338;2022-12-18T00:38:49;101464.25;;;-4.91;100.00
10881;BME280;5493;48.884;8.338;2022-12-18T00:41:18;101465.94;;;-5.04;100.00
10881;BME280;5493;48.884;8.338;2022-12-18T00:43:58;101463.72;;;-4.82;100.00
10881;BME280;5493;48.884;8.338;2022-12-18T00:46:25;101464.72;;;-4.99;100.00
10881;BME280;5493;48.884;8.338;2022-12-18T00:48:51;101462.94;;;-4.98;100.00
10881;BME280;5493;48.884;8.338;2022-12-18T00:51:18;101456.13;;;-4.72;100.00
10881;BME280;5493;48.884;8.338;2022-12-18T00:53:45;101451.56;;;-4.99;100.00
10881;BME280;5493;48.884;8.338;2022-12-18T00:56:11;101455.22;;;-5.15;100.00
10881;BME280;5493;48.884;8.338;2022-12-18T00:58:39;101467.34;;;-4.99;100.00
10881;BME280;5493;48.884;8.338;2022-12-18T01:01:06;101461.09;;;-4.68;100.00
10881;BME280;5493;48.884;8.338;2022-12-18T01:03:33;101459.09;;;-5.07;100.00
10881;BME280;5493;48.884;8.338;2022-12-18T01:06:05;101445.66;;;-4.74;100.00
10881;BME280;5493;48.884;8.338;2022-12-18T01:08:32;101448.88;;;-5.27;100.00
10881;BME280;5493;48.884;8.338;2022-12-18T01:10:59;101450.25;;;-4.91;100.00
10881;BME280;5493;48.884;8.338;2022-12-18T01:13:25;101451.84;;;-5.17;100.00
10881;BME280;5493;48.884;8.338;2022-12-18T01:15:53;101454.66;;;-5.06;100.00
10881;BME280;5493;48.884;8.338;2022-12-18T01:18:20;101456.56;;;-4.80;100.00
10881;BME280;5493;48.884;8.338;2022-12-18T01:20:46;101459.00;;;-5.05;100.00
10881;BME280;5493;48.884;8.338;2022-12-18T01:23:13;101455.63;;;-5.07;100.00
10881;BME280;5493;48.884;8.338;2022-12-18T01:25:39;101449.38;;;-5.20;100.00
10881;BME280;5493;48.884;8.338;2022-12-18T01:28:06;101452.44;;;-5.28;100.00
10881;BME280;5493;48.884;8.338;2022-12-18T01:30:32;101439.00;;;-5.37;100.00
10881;BME280;5493;48.884;8.338;2022-12-18T01:33:00;101448.78;;;-5.39;100.00
10881;BME280;5493;48.884;8.338;2022-12-18T01:35:27;101445.38;;;-5.41;100.00
10881;BME280;5493;48.884;8.338;2022-12-18T01:37:54;101461.59;;;-5.49;100.00
10881;BME280;5493;48.884;8.338;2022-12-18T01:40:20;101466.69;;;-5.02;100.00
10881;BME280;5493;48.884;8.338;2022-12-18T01:42:50;101480.16;;;-5.22;100.00
10881;BME280;5493;48.884;8.338;2022-12-18T01:45:26;101475.97;;;-5.11;100.00
10881;BME280;5493;48.884;8.338;2022-12-18T01:47:55;101483.25;;;-5.30;100.00
10881;BME280;5493;48.884;8.338;2022-12-18T01:50:27;101479.50;;;-5.26;100.00
10881;BME280;5493;48.884;8.338;2022-12-18T01:52:56;101481.56;;;-5.17;100.00
10881;BME280;5493;48.884;8.338;2022-12-18T01:55:26;101469.09;;;-5.13;100.00
10881;BME280;5493;48.884;8.338;2022-12-18T01:57:55;101463.78;;;-5.12;100.00
10881;BME280;5493;48.884;8.338;2022-12-18T02:00:24;101466.19;;;-5.23;100.00
10881;BME280;5493;48.884;8.338;2022-12-18T02:02:51;101462.28;;;-5.02;100.00
10881;BME280;5493;48.884;8.338;2022-12-18T02:05:26;101465.69;;;-4.85;100.00
10881;BME280;5493;48.884;8.338;2022-12-18T02:08:01;101475.34;;;-5.00;100.00
10881;BME280;5493;48.884;8.338;2022-12-18T02:10:34;101479.66;;;-4.99;100.00
10881;BME280;5493;48.884;8.338;2022-12-18T02:13:07;101480.28;;;-5.10;100.00
10881;BME280;5493;48.884;8.338;2022-12-18T02:15:41;101484.13;;;-5.15;100.00
10881;BME280;5493;48.884;8.338;2022-12-18T02:18:11;101480.91;;;-4.90;100.00
10881;BME280;5493;48.884;8.338;2022-12-18T02:20:44;101480.16;;;-4.78;100.00
10881;BME280;5493;48.884;8.338;2022-12-18T02:23:24;101477.94;;;-4.70;100.00
10881;BME280;5493;48.884;8.338;2022-12-18T02:26:08;101483.03;;;-4.97;100.00
10881;BME280;5493;48.884;8.338;2022-12-18T02:28:41;101480.31;;;-4.96;100.00
10881;BME280;5493;48.884;8.338;2022-12-18T02:31:11;101472.09;;;-5.19;100.00
10881;BME280;5493;48.884;8.338;2022-12-18T02:33:40;101475.22;;;-5.13;100.00
10881;BME280;5493;48.884;8.338;2022-12-18T02:36:09;101485.47;;;-5.08;100.00
10881;BME280;5493;48.884;8.338;2022-12-18T02:38:37;101486.75;;;-5.15;100.00
10881;BME280;5493;48.884;8.338;2022-12-18T02:41:06;101487.56;;;-5.29;100.00
10881;BME280;5493;48.884;8.338;2022-12-18T02:43:33;101467.34;;;-4.99;100.00
10881;BME280;5493;48.884;8.338;2022-12-18T02:46:27;101464.50;;;-5.10;100.00
10881;BME280;5493;48.884;8.338;2022-12-18T02:49:03;101465.81;;;-5.17;100.00
10881;BME280;5493;48.884;8.338;2022-12-18T02:51:40;101475.00;;;-5.24;100.00
10881;BME280;5493;48.884;8.338;2022-12-18T02:54:19;101474.53;;;-5.16;100.00
10881;BME280;5493;48.884;8.338;2022-12-18T02:56:51;101482.34;;;-5.15;100.00
10881;BME280;5493;48.884;8.338;2022-12-18T02:59:24;101482.22;;;-4.69;100.00
10881;BME280;5493;48.884;8.338;2022-12-18T03:01:56;101488.25;;;-4.53;100.00
10881;BME280;5493;48.884;8.338;2022-12-18T03:04:26;101491.63;;;-4.51;100.00
10881;BME280;5493;48.884;8.338;2022-12-18T03:06:56;101494.41;;;-4.97;100.00
10881;BME280;5493;48.884;8.338;2022-12-18T03:09:28;101495.75;;;-4.89;100.00
10881;BME280;5493;48.884;8.338;2022-12-18T03:12:02;101490.97;;;-5.13;100.00
10881;BME280;5493;48.884;8.338;2022-12-18T03:14:52;101491.69;;;-4.81;100.00
10881;BME280;5493;48.884;8.338;2022-12-18T03:17:23;101484.00;;;-4.56;100.00
10881;BME280;5493;48.884;8.338;2022-12-18T03:19:52;101485.47;;;-5.08;100.00
10881;BME280;5493;48.884;8.338;2022-12-18T03:22:20;101481.69;;;-5.18;100.00
10881;BME280;5493;48.884;8.338;2022-12-18T03:24:48;101482.41;;;-5.30;100.00
10881;BME280;5493;48.884;8.338;2022-12-18T03:27:18;101483.72;;;-4.93;100.00
10881;BME280;5493;48.884;8.338;2022-12-18T03:29:48;101492.25;;;-5.04;100.00
10881;BME280;5493;48.884;8.338;2022-12-18T03:32:19;101490.56;;;-5.21;100.00
10881;BME280;5493;48.884;8.338;2022-12-18T03:34:49;101480.81;;;-4.75;100.00
10881;BME280;5493;48.884;8.338;2022-12-18T03:37:17;101490.88;;;-5.25;100.00
10881;BME280;5493;48.884;8.338;2022-12-18T03:39:43;101499.22;;;-4.89;100.00
10881;BME280;5493;48.884;8.338;2022-12-18T03:42:17;101491.53;;;-4.92;100.00
10881;BME280;5493;48.884;8.338;2022-12-18T03:44:54;101491.19;;;-5.02;100.00
10881;BME280;5493;48.884;8.338;2022-12-18T03:47:27;101485.16;;;-5.18;100.00
10881;BME280;5493;48.884;8.338;2022-12-18T03:49:58;101476.41;;;-4.74;100.00
10881;BME280;5493;48.884;8.338;2022-12-18T03:52:30;101470.50;;;-5.22;100.00
10881;BME280;5493;48.884;8.338;2022-12-18T03:54:59;101474.03;;;-4.93;100.00
10881;BME280;5493;48.884;8.338;2022-12-18T03:57:30;101463.53;;;-4.93;100.00
10881;BME280;5493;48.884;8.338;2022-12-18T04:00:00;101459.13;;;-4.78;100.00
10881;BME280;5493;48.884;8.338;2022-12-18T04:02:29;101453.59;;;-4.60;100.00
10881;BME280;5493;48.884;8.338;2022-12-18T04:04:59;101451.63;;;-4.56;100.00
10881;BME280;5493;48.884;8.338;2022-12-18T04:07:28;101461.38;;;-4.72;100.00
10881;BME280;5493;48.884;8.338;2022-12-18T04:09:58;101467.03;;;-4.64;100.00
10881;BME280;5493;48.884;8.338;2022-12-18T04:12:25;101478.44;;;-4.93;100.00
10881;BME280;5493;48.884;8.338;2022-12-18T04:14:53;101476.88;;;-4.82;100.00
10881;BME280;5493;48.884;8.338;2022-12-18T04:17:20;101469.06;;;-4.69;100.00
10881;BME280;5493;48.884;8.338;2022-12-18T04:19:47;101469.91;;;-4.40;100.00
10881;BME280;5493;48.884;8.338;2022-12-18T04:22:14;101468.53;;;-4.74;100.00
10881;BME280;5493;48.884;8.338;2022-12-18T04:24:40;101459.41;;;-4.40;100.00
10881;BME280;5493;48.884;8.338;2022-12-18T04:27:07;101455.25;;;-4.44;100.00
10881;BME280;5493;48.884;8.338;2022-12-18T04:29:33;101458.00;;;-4.46;100.00
10881;BME280;5493;48.884;8.338;2022-12-18T04:32:01;101455.56;;;-4.49;100.00
10881;BME280;5493;48.884;8.338;2022-12-18T04:34:28;101451.13;;;-4.34;100.00
10881;BME280;5493;48.884;8.338;2022-12-18T04:36:54;101459.50;;;-4.56;100.00
10881;BME280;5493;48.884;8.338;2022-12-18T04:39:21;101475.75;;;-4.64;100.00
10881;BME280;5493;48.884;8.338;2022-12-18T04:41:48;101472.19;;;-4.34;100.00
10881;BME280;5493;48.884;8.338;2022-12-18T04:44:14;101475.00;;;-4.23;100.00
10881;BME280;5493;48.884;8.338;2022-12-18T04:46:41;101475.16;;;-4.26;100.00
10881;BME280;5493;48.884;8.338;2022-12-18T04:49:09;101473.41;;;-4.40;100.00
10881;BME280;5493;48.884;8.338;2022-12-18T04:51:36;101470.75;;;-4.26;100.00
10881;BME280;5493;48.884;8.338;2022-12-18T04:54:02;101468.41;;;-4.16;100.00
10881;BME280;5493;48.884;8.338;2022-12-18T04:56:30;101475.91;;;-4.10;100.00
10881;BME280;5493;48.884;8.338;2022-12-18T04:58:58;101469.78;;;-4.11;100.00
10881;BME280;5493;48.884;8.338;2022-12-18T05:01:24;101466.41;;;-3.99;100.00
10881;BME280;5493;48.884;8.338;2022-12-18T05:03:51;101468.81;;;-4.79;100.00
10881;BME280;5493;48.884;8.338;2022-12-18T05:06:19;101486.09;;;-4.32;100.00
10881;BME280;5493;48.884;8.338;2022-12-18T05:08:45;101486.25;;;-4.07;100.00
10881;BME280;5493;48.884;8.338;2022-12-18T05:11:14;101490.56;;;-3.92;100.00
10881;BME280;5493;48.884;8.338;2022-12-18T05:13:41;101492.22;;;-4.32;100.00
10881;BME280;5493;48.884;8.338;2022-12-18T05:16:08;101494.66;;;-4.29;100.00
10881;BME280;5493;48.884;8.338;2022-12-18T05:18:35;101500.38;;;-4.65;100.00
10881;BME280;5493;48.884;8.338;2022-12-18T05:21:02;101492.53;;;-4.94;100.00
10881;BME280;5493;48.884;8.338;2022-12-18T05:23:30;101492.72;;;-4.98;100.00
10881;BME280;5493;48.884;8.338;2022-12-18T05:25:58;101485.06;;;-4.44;100.00
10881;BME280;5493;48.884;8.338;2022-12-18T05:28:27;101484.41;;;-4.48;100.00
10881;BME280;5493;48.884;8.338;2022-12-18T05:30:55;101479.09;;;-4.19;100.00
10881;BME280;5493;48.884;8.338;2022-12-18T05:33:24;101480.72;;;-4.59;100.00
10881;BME280;5493;48.884;8.338;2022-12-18T05:35:51;101480.34;;;-4.25;100.00
10881;BME280;5493;48.884;8.338;2022-12-18T05:38:18;101487.16;;;-3.94;100.00
10881;BME280;5493;48.884;8.338;2022-12-18T05:40:46;101479.75;;;-4.16;100.00
10881;BME280;5493;48.884;8.338;2022-12-18T05:43:13;101477.44;;;-4.63;100.00
10881;BME280;5493;48.884;8.338;2022-12-18T05:45:41;101479.97;;;-4.19;100.00
10881;BME280;5493;48.884;8.338;2022-12-18T05:48:08;101474.91;;;-4.50;100.00
10881;BME280;5493;48.884;8.338;2022-12-18T05:50:38;101487.41;;;-4.25;100.00
10881;BME280;5493;48.884;8.338;2022-12-18T05:53:05;101481.28;;;-4.26;100.00
10881;BME280;5493;48.884;8.338;2022-12-18T05:55:32;101486.28;;;-4.50;100.00
10881;BME280;5493;48.884;8.338;2022-12-18T05:58:00;101496.69;;;-4.48;100.00
10881;BME280;5493;48.884;8.338;2022-12-18T06:00:27;101501.41;;;-4.39;100.00
10881;BME280;5493;48.884;8.338;2022-12-18T06:02:54;101501.16;;;-4.49;100.00
10881;BME280;5493;48.884;8.338;2022-12-18T06:05:21;101496.25;;;-4.40;100.00
10881;BME280;5493;48.884;8.338;2022-12-18T06:07:47;101494.00;;;-4.61;100.00
10881;BME280;5493;48.884;8.338;2022-12-18T06:10:14;101507.97;;;-4.74;100.00
10881;BME280;5493;48.884;8.338;2022-12-18T06:12:40;101504.13;;;-4.55;100.00
10881;BME280;5493;48.884;8.338;2022-12-18T06:15:09;101512.78;;;-4.67;100.00
10881;BME280;5493;48.884;8.338;2022-12-18T06:17:36;101512.50;;;-4.62;100.00
10881;BME280;5493;48.884;8.338;2022-12-18T06:20:04;101517.94;;;-4.51;100.00
10881;BME280;5493;48.884;8.338;2022-12-18T06:22:31;101519.66;;;-4.36;100.00
10881;BME280;5493;48.884;8.338;2022-12-18T06:24:58;101525.56;;;-4.32;100.00
10881;BME280;5493;48.884;8.338;2022-12-18T06:27:25;101532.72;;;-4.06;100.00
10881;BME280;5493;48.884;8.338;2022-12-18T06:29:52;101539.78;;;-4.07;100.00
10881;BME280;5493;48.884;8.338;2022-12-18T06:32:20;101536.94;;;-4.18;100.00
10881;BME280;5493;48.884;8.338;2022-12-18T06:34:46;101538.06;;;-3.93;100.00
10881;BME280;5493;48.884;8.338;2022-12-18T06:37:13;101537.03;;;-4.05;100.00
10881;BME280;5493;48.884;8.338;2022-12-18T06:39:39;101540.38;;;-3.75;100.00
10881;BME280;5493;48.884;8.338;2022-12-18T06:42:06;101541.78;;;-3.83;100.00
10881;BME280;5493;48.884;8.338;2022-12-18T06:44:32;101545.22;;;-3.95;100.00
10881;BME280;5493;48.884;8.338;2022-12-18T06:46:59;101550.84;;;-3.87;100.00
10881;BME280;5493;48.884;8.338;2022-12-18T06:49:27;101553.28;;;-3.84;100.00
10881;BME280;5493;48.884;8.338;2022-12-18T06:51:53;101553.84;;;-3.93;100.00
10881;BME280;5493;48.884;8.338;2022-12-18T06:54:20;101545.88;;;-3.92;100.00
10881;BME280;5493;48.884;8.338;2022-12-18T06:56:46;101544.75;;;-3.88;100.00
10881;BME280;5493;48.884;8.338;2022-12-18T06:59:13;101543.69;;;-3.85;100.00
10881;BME280;5493;48.884;8.338;2022-12-18T07:01:40;101554.63;;;-3.91;100.00
10881;BME280;5493;48.884;8.338;2022-12-18T07:04:07;101553.31;;;-3.99;100.00
10881;BME280;5493;48.884;8.338;2022-12-18T07:06:35;101548.72;;;-3.68;100.00
10881;BME280;5493;48.884;8.338;2022-12-18T07:09:01;101542.31;;;-3.91;100.00
10881;BME280;5493;48.884;8.338;2022-12-18T07:11:28;101543.88;;;-3.88;100.00
10881;BME280;5493;48.884;8.338;2022-12-18T07:13:54;101554.50;;;-3.90;100.00
10881;BME280;5493;48.884;8.338;2022-12-18T07:16:21;101562.41;;;-3.90;100.00
10881;BME280;5493;48.884;8.338;2022-12-18T07:18:48;101560.19;;;-4.10;100.00
10881;BME280;5493;48.884;8.338;2022-12-18T07:21:16;101558.00;;;-4.04;100.00
10881;BME280;5493;48.884;8.338;2022-12-18T07:23:45;101557.28;;;-4.06;100.00
10881;BME280;5493;48.884;8.338;2022-12-18T07:26:14;101546.81;;;-3.93;100.00
10881;BME280;5493;48.884;8.338;2022-12-18T07:28:41;101558.09;;;-3.91;100.00
10881;BME280;5493;48.884;8.338;2022-12-18T07:31:10;101554.00;;;-3.68;100.00
10881;BME280;5493;48.884;8.338;2022-12-18T07:33:37;101556.19;;;-3.75;100.00
10881;BME280;5493;48.884;8.338;2022-12-18T07:36:05;101559.25;;;-4.23;100.00
10881;BME280;5493;48.884;8.338;2022-12-18T07:41:52;101570.31;;;-4.18;100.00
10881;BME280;5493;48.884;8.338;2022-12-18T07:44:33;101569.78;;;-3.95;100.00
10881;BME280;5493;48.884;8.338;2022-12-18T07:46:59;101569.47;;;-3.90;100.00
10881;BME280;5493;48.884;8.338;2022-12-18T07:49:26;101572.88;;;-3.88;100.00
10881;BME280;5493;48.884;8.338;2022-12-18T07:51:54;101575.03;;;-4.09;100.00
10881;BME280;5493;48.884;8.338;2022-12-18T07:54:21;101588.66;;;-4.31;100.00
10881;BME280;5493;48.884;8.338;2022-12-18T07:56:47;101591.59;;;-4.21;100.00
10881;BME280;5493;48.884;8.338;2022-12-18T07:59:15;101592.72;;;-3.97;100.00
10881;BME280;5493;48.884;8.338;2022-12-18T08:01:42;101603.50;;;-4.16;100.00
10881;BME280;5493;48.884;8.338;2022-12-18T08:04:08;101615.44;;;-4.53;100.00
10881;BME280;5493;48.884;8.338;2022-12-18T08:06:35;101613.81;;;-4.55;100.00
10881;BME280;5493;48.884;8.338;2022-12-18T08:09:02;101607.78;;;-4.87;100.00
10881;BME280;5493;48.884;8.338;2022-12-18T08:11:28;101606.97;;;-4.43;100.00
10881;BME280;5493;48.884;8.338;2022-12-18T08:13:55;101612.72;;;-4.37;100.00
10881;BME280;5493;48.884;8.338;2022-12-18T08:16:23;101608.69;;;-4.72;100.00
10881;BME280;5493;48.884;8.338;2022-12-18T08:18:51;101618.09;;;-4.24;100.00
10881;BME280;5493;48.884;8.338;2022-12-18T08:21:20;101606.94;;;-4.58;100.00
10881;BME280;5493;48.884;8.338;2022-12-18T08:23:48;101618.50;;;-4.60;100.00
10881;BME280;5493;48.884;8.338;2022-12-18T08:26:15;101619.88;;;-4.69;100.00
10881;BME280;5493;48.884;8.338;2022-12-18T08:28:42;101607.31;;;-4.20;100.00
10881;BME280;5493;48.884;8.338;2022-12-18T08:31:09;101589.88;;;-4.08;100.00
10881;BME280;5493;48.884;8.338;2022-12-18T08:33:38;101588.41;;;-3.98;100.00
10881;BME280;5493;48.884;8.338;2022-12-18T08:36:05;101590.81;;;-4.37;100.00
10881;BME280;5493;48.884;8.338;2022-12-18T08:38:32;101586.97;;;-4.18;100.00
10881;BME280;5493;48.884;8.338;2022-12-18T08:40:59;101584.13;;;-4.43;100.00
10881;BME280;5493;48.884;8.338;2022-12-18T08:43:26;101584.22;;;-4.44;100.00
10881;BME280;5493;48.884;8.338;2022-12-18T08:46:11;101564.13;;;-4.17;100.00
10881;BME280;5493;48.884;8.338;2022-12-18T08:48:38;101559.91;;;-4.06;100.00
10881;BME280;5493;48.884;8.338;2022-12-18T08:51:05;101557.38;;;-3.52;100.00
10881;BME280;5493;48.884;8.338;2022-12-18T08:53:31;101546.22;;;-3.43;100.00
10881;BME280;5493;48.884;8.338;2022-12-18T08:55:58;101537.75;;;-3.75;100.00
10881;BME280;5493;48.884;8.338;2022-12-18T08:58:25;101540.53;;;-3.64;100.00
10881;BME280;5493;48.884;8.338;2022-12-18T09:00:51;101542.63;;;-3.42;100.00
10881;BME280;5493;48.884;8.338;2022-12-18T09:03:18;101541.69;;;-3.68;100.00
10881;BME280;5493;48.884;8.338;2022-12-18T09:05:48;101546.91;;;-3.54;100.00
10881;BME280;5493;48.884;8.338;2022-12-18T09:08:15;101546.50;;;-3.21;100.00
10881;BME280;5493;48.884;8.338;2022-12-18T09:10:42;101534.31;;;-3.36;100.00
10881;BME280;5493;48.884;8.338;2022-12-18T09:13:09;101549.19;;;-3.62;100.00
10881;BME280;5493;48.884;8.338;2022-12-18T09:15:40;101551.44;;;-3.29;100.00
10881;BME280;5493;48.884;8.338;2022-12-18T09:18:06;101560.41;;;-3.72;100.00
10881;BME280;5493;48.884;8.338;2022-12-18T09:20:34;101558.31;;;-3.26;100.00
10881;BME280;5493;48.884;8.338;2022-12-18T09:23:02;101558.50;;;-3.03;100.00
10881;BME280;5493;48.884;8.338;2022-12-18T09:25:29;101564.25;;;-2.71;100.00
10881;BME280;5493;48.884;8.338;2022-12-18T09:27:58;101554.19;;;-2.91;100.00
10881;BME280;5493;48.884;8.338;2022-12-18T09:30:24;101567.38;;;-3.30;100.00
10881;BME280;5493;48.884;8.338;2022-12-18T09:32:53;101582.09;;;-2.74;100.00
10881;BME280;5493;48.884;8.338;2022-12-18T09:35:20;101581.06;;;-2.72;100.00
10881;BME280;5493;48.884;8.338;2022-12-18T09:37:47;101593.84;;;-2.53;100.00
10881;BME280;5493;48.884;8.338;2022-12-18T09:40:16;101601.47;;;-2.49;100.00
10881;BME280;5493;48.884;8.338;2022-12-18T09:42:46;101597.41;;;-2.67;100.00
10881;BME280;5493;48.884;8.338;2022-12-18T09:45:15;101596.91;;;-2.99;100.00
10881;BME280;5493;48.884;8.338;2022-12-18T09:47:43;101591.84;;;-2.50;100.00
10881;BME280;5493;48.884;8.338;2022-12-18T09:50:21;101588.91;;;-2.45;100.00
10881;BME280;5493;48.884;8.338;2022-12-18T09:52:53;101595.53;;;-3.04;100.00
10881;BME280;5493;48.884;8.338;2022-12-18T09:55:25;101609.72;;;-3.19;100.00
10881;BME280;5493;48.884;8.338;2022-12-18T09:57:56;101605.47;;;-2.68;100.00
10881;BME280;5493;48.884;8.338;2022-12-18T10:00:26;101619.09;;;-2.49;100.00
10881;BME280;5493;48.884;8.338;2022-12-18T10:02:57;101623.50;;;-2.62;100.00
10881;BME280;5493;48.884;8.338;2022-12-18T10:05:34;101620.69;;;-2.34;100.00
10881;BME280;5493;48.884;8.338;2022-12-18T10:08:05;101619.56;;;-2.42;100.00
10881;BME280;5493;48.884;8.338;2022-12-18T10:10:42;101622.19;;;-2.42;100.00
10881;BME280;5493;48.884;8.338;2022-12-18T10:13:21;101620.50;;;-2.83;100.00
10881;BME280;5493;48.884;8.338;2022-12-18T10:15:58;101616.31;;;-3.00;100.00
10881;BME280;5493;48.884;8.338;2022-12-18T10:18:35;101608.72;;;-3.04;100.00
10881;BME280;5493;48.884;8.338;2022-12-18T10:21:10;101610.66;;;-2.41;100.00
10881;BME280;5493;48.884;8.338;2022-12-18T10:23:42;101604.91;;;-2.73;100.00
10881;BME280;5493;48.884;8.338;2022-12-18T10:26:11;101599.13;;;-2.53;100.00
10881;BME280;5493;48.884;8.338;2022-12-18T10:28:39;101589.84;;;-2.59;100.00
10881;BME280;5493;48.884;8.338;2022-12-18T10:31:07;101579.19;;;-2.57;100.00
10881;BME280;5493;48.884;8.338;2022-12-18T10:33:34;101580.78;;;-2.04;100.00
10881;BME280;5493;48.884;8.338;2022-12-18T10:36:00;101588.06;;;-2.08;100.00
10881;BME280;5493;48.884;8.338;2022-12-18T10:38:29;101582.16;;;-2.36;100.00
10881;BME280;5493;48.884;8.338;2022-12-18T10:40:58;101578.56;;;-2.10;100.00
10881;BME280;5493;48.884;8.338;2022-12-18T10:43:28;101584.59;;;-1.95;100.00
10881;BME280;5493;48.884;8.338;2022-12-18T10:46:04;101588.78;;;-1.93;100.00
10881;BME280;5493;48.884;8.338;2022-12-18T10:48:33;101589.09;;;-1.98;100.00
10881;BME280;5493;48.884;8.338;2022-12-18T10:51:00;101588.31;;;-1.62;100.00
10881;BME280;5493;48.884;8.338;2022-12-18T10:53:28;101573.69;;;-1.55;100.00
10881;BME280;5493;48.884;8.338;2022-12-18T10:55:58;101577.59;;;-1.48;100.00
10881;BME280;5493;48.884;8.338;2022-12-18T10:58:28;101571.34;;;-1.46;100.00
10881;BME280;5493;48.884;8.338;2022-12-18T11:01:04;101576.13;;;-2.01;100.00
10881;BME280;5493;48.884;8.338;2022-12-18T11:03:32;101574.94;;;-2.60;100.00
10881;BME280;5493;48.884;8.338;2022-12-18T11:06:06;101586.03;;;-2.55;100.00
10881;BME280;5493;48.884;8.338;2022-12-18T11:08:34;101587.72;;;-3.06;100.00
10881;BME280;5493;48.884;8.338;2022-12-18T11:11:00;101584.06;;;-3.17;100.00
10881;BME280;5493;48.884;8.338;2022-12-18T11:13:30;101589.41;;;-3.05;100.00
10881;BME280;5493;48.884;8.338;2022-12-18T11:15:57;101589.69;;;-2.82;100.00
10881;BME280;5493;48.884;8.338;2022-12-18T11:18:27;101582.13;;;-2.24;100.00
10881;BME280;5493;48.884;8.338;2022-12-18T11:20:56;101573.78;;;-2.68;100.00
10881;BME280;5493;48.884;8.338;2022-12-18T11:23:24;101578.69;;;-2.89;100.00
10881;BME280;5493;48.884;8.338;2022-12-18T11:25:56;101586.00;;;-3.07;100.00
10881;BME280;5493;48.884;8.338;2022-12-18T11:28:36;101582.72;;;-2.71;100.00
10881;BME280;5493;48.884;8.338;2022-12-18T11:31:19;101589.63;;;-2.68;100.00
10881;BME280;5493;48.884;8.338;2022-12-18T11:33:51;101579.72;;;-2.91;100.00
10881;BME280;5493;48.884;8.338;2022-12-18T11:36:20;101581.06;;;-3.11;100.00
10881;BME280;5493;48.884;8.338;2022-12-18T11:38:49;101578.22;;;-3.08;100.00
10881;BME280;5493;48.884;8.338;2022-12-18T11:41:24;101573.16;;;-2.72;100.00
10881;BME280;5493;48.884;8.338;2022-12-18T11:44:16;101568.09;;;-3.02;100.00
10881;BME280;5493;48.884;8.338;2022-12-18T11:46:47;101567.69;;;-2.43;100.00
10881;BME280;5493;48.884;8.338;2022-12-18T11:49:20;101554.66;;;-2.59;100.00
10881;BME280;5493;48.884;8.338;2022-12-18T11:51:53;101553.09;;;-2.36;100.00
10881;BME280;5493;48.884;8.338;2022-12-18T11:54:21;101540.22;;;-2.54;100.00
10881;BME280;5493;48.884;8.338;2022-12-18T11:56:51;101546.41;;;-2.80;100.00
10881;BME280;5493;48.884;8.338;2022-12-18T11:59:29;101544.78;;;-2.95;100.00
10881;BME280;5493;48.884;8.338;2022-12-18T12:02:03;101537.00;;;-2.71;100.00
10881;BME280;5493;48.884;8.338;2022-12-18T12:04:47;101534.59;;;-2.74;100.00
10881;BME280;5493;48.884;8.338;2022-12-18T12:07:25;101534.06;;;-2.41;100.00
10881;BME280;5493;48.884;8.338;2022-12-18T12:10:00;101519.81;;;-2.52;100.00
10881;BME280;5493;48.884;8.338;2022-12-18T12:12:36;101511.16;;;-2.41;100.00
10881;BME280;5493;48.884;8.338;2022-12-18T12:15:21;101510.44;;;-2.68;100.00
10881;BME280;5493;48.884;8.338;2022-12-18T12:17:54;101510.53;;;-2.32;100.00
10881;BME280;5493;48.884;8.338;2022-12-18T12:20:27;101522.13;;;-1.73;100.00
10881;BME280;5493;48.884;8.338;2022-12-18T12:23:06;101525.78;;;-1.63;100.00
10881;BME280;5493;48.884;8.338;2022-12-18T12:25:41;101527.88;;;-1.55;100.00
10881;BME280;5493;48.884;8.338;2022-12-18T12:28:32;101532.59;;;-2.45;100.00
10881;BME280;5493;48.884;8.338;2022-12-18T12:31:07;101526.00;;;-1.89;100.00
10881;BME280;5493;48.884;8.338;2022-12-18T12:33:44;101538.75;;;-2.32;100.00
10881;BME280;5493;48.884;8.338;2022-12-18T12:36:22;101536.81;;;-2.30;100.00
10881;BME280;5493;48.884;8.338;2022-12-18T12:38:57;101542.00;;;-2.41;100.00
10881;BME280;5493;48.884;8.338;2022-12-18T12:41:30;101535.84;;;-2.17;100.00
10881;BME280;5493;48.884;8.338;2022-12-18T12:44:20;101531.53;;;-2.30;100.00
10881;BME280;5493;48.884;8.338;2022-12-18T12:46:52;101536.69;;;-2.16;100.00
10881;BME280;5493;48.884;8.338;2022-12-18T12:49:22;101528.19;;;-2.32;100.00
10881;BME280;5493;48.884;8.338;2022-12-18T12:51:58;101528.69;;;-2.53;100.00
10881;BME280;5493;48.884;8.338;2022-12-18T12:54:28;101529.09;;;-2.71;100.00
10881;BME280;5493;48.884;8.338;2022-12-18T12:56:59;101528.19;;;-2.58;100.00
10881;BME280;5493;48.884;8.338;2022-12-18T12:59:36;101524.78;;;-2.60;100.00
10881;BME280;5493;48.884;8.338;2022-12-18T13:02:15;101514.31;;;-2.49;100.00
10881;BME280;5493;48.884;8.338;2022-12-18T13:04:48;101506.72;;;-2.53;100.00
10881;BME280;5493;48.884;8.338;2022-12-18T13:07:21;101496.06;;;-2.52;100.00